createdAt,value
2022-11-05T00:00:40.364Z,9.57
2022-11-05T00:03:27.880Z,10.55
2022-11-05T00:06:14.431Z,10.68
2022-11-05T00:09:01.496Z,8.93
2022-11-05T00:12:04.669Z,7.90
2022-11-05T00:14:51.601Z,9.77
2022-11-05T00:17:19.455Z,9.10
2022-11-05T00:19:47.291Z,10.10
2022-11-05T00:22:33.812Z,7.70
2022-11-05T00:25:19.892Z,10.88
2022-11-05T00:27:50.241Z,9.90
2022-11-05T00:30:26.586Z,7.80
2022-11-05T00:32:54.941Z,8.80
2022-11-05T00:35:23.721Z,10.68
2022-11-05T00:37:54.979Z,9.82
2022-11-05T00:40:22.857Z,9.82
2022-11-05T00:43:09.923Z,8.02
2022-11-05T00:45:41.690Z,8.50
2022-11-05T00:48:28.455Z,10.48
2022-11-05T00:50:56.398Z,7.82
2022-11-05T00:53:24.598Z,8.73
2022-11-05T00:55:52.481Z,9.23
2022-11-05T00:58:23.137Z,9.65
2022-11-05T01:00:56.815Z,9.13
2022-11-05T01:03:27.306Z,7.32
2022-11-05T01:06:01.114Z,7.30
2022-11-05T01:08:29.262Z,5.88
2022-11-05T01:10:59.434Z,6.35
2022-11-05T01:13:30.661Z,8.07
2022-11-05T01:15:59.100Z,7.47
2022-11-05T01:18:26.994Z,10.80
2022-11-05T01:20:54.871Z,10.45
2022-11-05T01:23:22.700Z,11.40
2022-11-05T01:25:50.582Z,8.10
2022-11-05T01:32:23.134Z,7.85
2022-11-05T01:34:50.992Z,7.80
2022-11-05T01:37:18.893Z,8.73
2022-11-05T01:39:46.748Z,12.70
2022-11-05T01:42:24.014Z,10.43
2022-11-05T01:45:02.883Z,11.48
2022-11-05T01:47:36.794Z,11.20
2022-11-05T01:50:21.589Z,8.70
2022-11-05T01:52:52.586Z,9.10
2022-11-05T01:55:26.949Z,9.52
2022-11-05T01:57:59.546Z,11.05
2022-11-05T02:00:30.714Z,10.50
2022-11-05T02:02:59.221Z,7.50
2022-11-05T02:05:27.314Z,10.77
2022-11-05T02:07:56.013Z,12.15
2022-11-05T02:10:24.982Z,10.35
2022-11-05T02:12:53.009Z,10.40
2022-11-05T02:15:47.200Z,14.00
2022-11-05T02:18:21.618Z,9.35
2022-11-05T02:21:22.729Z,8.73
2022-11-05T02:24:16.791Z,9.20
2022-11-05T02:27:36.096Z,8.70
2022-11-05T02:30:09.036Z,7.85
2022-11-05T02:33:08.472Z,8.50
2022-11-05T02:35:50.566Z,8.95
2022-11-05T02:38:49.818Z,11.25
2022-11-05T02:41:34.612Z,11.18
2022-11-05T02:44:27.674Z,10.30
2022-11-05T02:47:25.811Z,9.32
2022-11-05T02:50:17.545Z,9.68
2022-11-05T02:53:03.969Z,10.13
2022-11-05T02:55:40.888Z,9.90
2022-11-05T02:58:09.666Z,7.75
2022-11-05T03:00:44.537Z,9.30
2022-11-05T03:03:20.516Z,8.77
2022-11-05T03:06:06.986Z,9.13
2022-11-05T03:08:48.635Z,6.97
2022-11-05T03:11:22.893Z,11.32
2022-11-05T03:14:14.271Z,8.40
2022-11-05T03:16:46.225Z,7.25
2022-11-05T03:19:20.612Z,6.45
2022-11-05T03:21:57.473Z,8.88
2022-11-05T03:24:31.611Z,9.82
2022-11-05T03:27:13.978Z,12.55
2022-11-05T03:29:58.798Z,9.55
2022-11-05T03:32:28.872Z,7.82
2022-11-05T03:35:03.219Z,7.28
2022-11-05T03:37:34.983Z,8.50
2022-11-05T03:40:05.239Z,8.63
2022-11-05T03:42:36.857Z,11.18
2022-11-05T03:45:11.175Z,9.70
2022-11-05T03:47:43.994Z,7.47
2022-11-05T03:50:15.151Z,9.35
2022-11-05T03:53:01.065Z,7.00
2022-11-05T03:55:51.929Z,9.20
2022-11-05T03:58:22.504Z,7.37
2022-11-05T04:00:51.874Z,6.70
2022-11-05T04:03:20.030Z,6.45
2022-11-05T04:06:08.410Z,6.28
2022-11-05T04:08:54.842Z,8.63
2022-11-05T04:11:41.247Z,6.13
2022-11-05T04:14:09.187Z,7.70
2022-11-05T04:16:55.541Z,7.93
2022-11-05T04:19:42.053Z,7.53
2022-11-05T04:22:28.543Z,7.07
2022-11-05T04:24:59.556Z,7.95
2022-11-05T04:27:27.438Z,9.75
2022-11-05T04:30:16.940Z,8.63
2022-11-05T04:33:03.574Z,8.05
2022-11-05T04:35:38.223Z,9.15
2022-11-05T04:38:08.888Z,8.73
2022-11-05T04:40:37.640Z,11.55
2022-11-05T04:43:10.641Z,10.25
2022-11-05T04:45:42.919Z,14.13
2022-11-05T04:48:10.990Z,8.70
2022-11-05T04:50:39.312Z,9.80
2022-11-05T04:53:10.600Z,11.10
2022-11-05T04:58:10.547Z,11.10
2022-11-05T05:00:38.412Z,13.00
2022-11-05T05:03:06.334Z,10.25
2022-11-05T05:05:34.200Z,9.07
2022-11-05T05:08:03.463Z,12.48
2022-11-05T05:10:31.954Z,11.25
2022-11-05T05:12:59.804Z,11.80
2022-11-05T05:15:27.667Z,9.55
2022-11-05T05:17:55.554Z,11.95
2022-11-05T05:20:41.965Z,9.30
2022-11-05T05:23:09.989Z,10.23
2022-11-05T05:25:38.031Z,12.15
2022-11-05T05:28:05.994Z,9.13
2022-11-05T05:30:33.933Z,10.48
2022-11-05T05:33:05.661Z,13.90
2022-11-05T05:35:33.653Z,11.85
2022-11-05T05:38:01.488Z,12.73
2022-11-05T05:40:29.485Z,10.43
2022-11-05T05:42:57.523Z,14.80
2022-11-05T05:45:25.501Z,12.35
2022-11-05T05:47:55.645Z,12.27
2022-11-05T05:50:23.486Z,12.30
2022-11-05T05:52:53.620Z,9.63
2022-11-05T05:55:21.682Z,10.38
2022-11-05T05:57:49.622Z,11.77
2022-11-05T06:00:17.716Z,10.35
2022-11-05T06:02:45.621Z,14.10
2022-11-05T06:05:13.648Z,11.85
2022-11-05T06:07:41.533Z,13.68
2022-11-05T06:10:10.040Z,11.50
2022-11-05T06:12:37.940Z,13.10
2022-11-05T06:15:06.236Z,10.32
2022-11-05T06:17:34.355Z,9.25
2022-11-05T06:20:02.251Z,9.93
2022-11-05T06:22:33.671Z,10.25
2022-11-05T06:25:03.871Z,12.98
2022-11-05T06:27:32.109Z,10.60
2022-11-05T06:30:01.752Z,11.15
2022-11-05T06:32:29.871Z,10.13
2022-11-05T06:37:38.503Z,12.05
2022-11-05T06:40:07.231Z,12.65
2022-11-05T06:42:35.207Z,12.75
2022-11-05T06:45:05.453Z,13.85
2022-11-05T06:47:33.309Z,16.63
2022-11-05T06:50:01.267Z,16.02
2022-11-05T06:52:37.024Z,15.52
2022-11-05T06:55:08.264Z,17.08
2022-11-05T06:57:39.836Z,14.60
2022-11-05T07:00:08.793Z,19.02
2022-11-05T07:02:36.988Z,15.48
2022-11-05T07:05:05.000Z,17.90
2022-11-05T07:07:33.216Z,15.10
2022-11-05T07:10:01.144Z,15.02
2022-11-05T07:12:29.414Z,15.10
2022-11-05T07:14:57.408Z,14.68
2022-11-05T07:17:25.559Z,19.92
2022-11-05T07:19:54.192Z,16.95
2022-11-05T07:22:22.785Z,16.40
2022-11-05T07:24:51.470Z,14.25
2022-11-05T07:27:19.628Z,15.23
2022-11-05T07:29:50.997Z,18.05
2022-11-05T07:34:51.431Z,15.23
2022-11-05T07:37:21.970Z,20.17
2022-11-05T07:39:49.931Z,17.45
2022-11-05T07:42:19.315Z,15.30
2022-11-05T07:44:47.208Z,17.67
2022-11-05T07:47:15.656Z,15.43
2022-11-05T07:49:43.890Z,16.15
2022-11-05T07:52:11.696Z,16.92
2022-11-05T07:54:40.800Z,19.25
2022-11-05T07:57:08.688Z,19.60
2022-11-05T07:59:36.834Z,17.80
2022-11-05T08:02:05.268Z,18.98
2022-11-05T08:04:33.635Z,18.80
2022-11-05T08:07:04.289Z,18.08
2022-11-05T08:09:35.340Z,18.70
2022-11-05T08:12:03.568Z,16.27
2022-11-05T08:14:31.459Z,19.40
2022-11-05T08:16:59.743Z,15.48
2022-11-05T08:19:30.740Z,18.38
2022-11-05T08:21:58.738Z,16.75
2022-11-05T08:24:26.888Z,15.18
2022-11-05T08:26:55.875Z,18.52
2022-11-05T08:29:24.196Z,21.00
2022-11-05T08:31:52.309Z,20.33
2022-11-05T08:34:20.297Z,21.42
2022-11-05T08:36:48.334Z,27.77
2022-11-05T08:39:17.621Z,23.55
2022-11-05T08:41:46.128Z,22.98
2022-11-05T08:44:14.198Z,26.02
2022-11-05T08:46:42.380Z,26.10
2022-11-05T08:49:10.491Z,22.08
2022-11-05T08:51:38.389Z,17.98
2022-11-05T08:54:06.580Z,23.95
2022-11-05T08:56:34.428Z,22.52
2022-11-05T08:59:02.452Z,18.70
2022-11-05T09:01:30.792Z,19.27
2022-11-05T09:03:58.770Z,21.38
2022-11-05T09:06:26.824Z,19.38
2022-11-05T09:08:54.783Z,18.40
2022-11-05T09:11:29.355Z,18.17
2022-11-05T09:14:07.283Z,19.83
2022-11-05T09:16:38.947Z,23.63
2022-11-05T09:19:06.818Z,22.15
2022-11-05T09:21:35.680Z,22.50
2022-11-05T09:24:03.623Z,15.68
2022-11-05T09:26:31.645Z,16.27
2022-11-05T09:28:59.864Z,17.80
2022-11-05T09:31:27.945Z,15.13
2022-11-05T09:33:55.853Z,14.65
2022-11-05T09:36:24.015Z,18.98
2022-11-05T09:38:51.969Z,16.05
2022-11-05T09:41:35.477Z,16.20
2022-11-05T09:44:14.545Z,14.90
2022-11-05T09:46:52.104Z,14.43
2022-11-05T09:49:45.371Z,15.93
2022-11-05T09:52:22.464Z,16.45
2022-11-05T09:54:51.474Z,17.50
2022-11-05T09:57:24.361Z,18.55
2022-11-05T10:00:02.996Z,21.27
2022-11-05T10:02:54.777Z,18.00
2022-11-05T10:05:28.017Z,21.08
2022-11-05T10:08:13.463Z,20.00
2022-11-05T10:11:02.918Z,18.77
2022-11-05T10:13:56.058Z,18.15
2022-11-05T10:16:43.172Z,19.70
2022-11-05T10:19:17.897Z,15.98
2022-11-05T10:22:06.232Z,14.85
2022-11-05T10:24:34.427Z,16.98
2022-11-05T10:27:03.198Z,19.55
2022-11-05T10:29:34.299Z,16.40
2022-11-05T10:32:06.608Z,15.05
2022-11-05T10:34:38.402Z,19.67
2022-11-05T10:37:06.660Z,17.42
2022-11-05T10:39:35.743Z,15.57
2022-11-05T10:42:28.864Z,15.23
2022-11-05T10:45:28.062Z,15.50
2022-11-05T10:48:19.131Z,15.98
2022-11-05T10:50:47.085Z,21.60
2022-11-05T10:53:22.963Z,15.00
2022-11-05T10:55:55.721Z,15.80
2022-11-05T10:58:29.961Z,16.83
2022-11-05T11:00:57.997Z,13.77
2022-11-05T11:03:46.120Z,14.07
2022-11-05T11:06:30.044Z,15.55
2022-11-05T11:09:01.042Z,14.98
2022-11-05T11:11:34.128Z,17.15
2022-11-05T11:14:12.728Z,15.77
2022-11-05T11:16:43.517Z,14.02
2022-11-05T11:19:29.948Z,14.30
2022-11-05T11:22:06.690Z,16.48
2022-11-05T11:24:49.253Z,12.20
2022-11-05T11:27:27.171Z,16.00
2022-11-05T11:30:08.782Z,15.80
2022-11-05T11:32:41.054Z,18.33
2022-11-05T11:35:23.457Z,14.73
2022-11-05T11:37:55.385Z,14.57
2022-11-05T11:40:34.343Z,17.15
2022-11-05T11:43:07.044Z,14.57
2022-11-05T11:45:50.243Z,14.70
2022-11-05T11:48:26.497Z,13.10
2022-11-05T11:50:57.055Z,10.25
2022-11-05T11:53:36.384Z,14.07
2022-11-05T11:56:17.736Z,14.20
2022-11-05T11:58:56.824Z,11.70
2022-11-05T12:01:48.859Z,12.43
2022-11-05T12:04:41.400Z,12.73
2022-11-05T12:07:42.863Z,13.88
2022-11-05T12:10:22.572Z,14.77
2022-11-05T12:13:34.119Z,13.10
2022-11-05T12:16:22.385Z,16.67
2022-11-05T12:19:23.655Z,14.82
2022-11-05T12:22:06.834Z,14.77
2022-11-05T12:25:09.950Z,14.70
2022-11-05T12:27:56.016Z,13.35
2022-11-05T12:30:24.653Z,15.95
2022-11-05T12:33:04.594Z,16.55
2022-11-05T12:35:57.415Z,14.25
2022-11-05T12:38:47.781Z,13.15
2022-11-05T12:41:38.141Z,15.43
2022-11-05T12:44:13.502Z,17.30
2022-11-05T12:47:00.837Z,14.25
2022-11-05T12:50:05.604Z,14.82
2022-11-05T12:53:06.502Z,14.27
2022-11-05T12:55:48.775Z,16.43
2022-11-05T12:58:41.345Z,15.50
2022-11-05T13:01:15.935Z,13.43
2022-11-05T13:03:50.610Z,14.52
2022-11-05T13:06:36.110Z,14.52
2022-11-05T13:09:13.989Z,12.80
2022-11-05T13:12:03.244Z,14.13
2022-11-05T13:14:54.683Z,16.25
2022-11-05T13:17:26.965Z,14.20
2022-11-05T13:20:07.134Z,12.32
2022-11-05T13:22:39.856Z,11.93
2022-11-05T13:25:32.491Z,11.40
2022-11-05T13:28:34.958Z,11.88
2022-11-05T13:31:09.495Z,12.70
2022-11-05T13:33:44.953Z,13.43
2022-11-05T13:36:44.063Z,14.13
2022-11-05T13:39:23.914Z,12.65
2022-11-05T13:42:01.847Z,13.02
2022-11-05T13:44:57.820Z,13.88
2022-11-05T13:47:49.740Z,15.90
2022-11-05T13:50:42.184Z,11.25
2022-11-05T13:53:40.661Z,11.43
2022-11-05T13:56:31.688Z,13.23
2022-11-05T13:59:41.126Z,15.60
2022-11-05T14:02:19.728Z,12.43
2022-11-05T14:04:59.591Z,12.35
2022-11-05T14:07:46.314Z,9.93
2022-11-05T14:10:40.541Z,13.25
2022-11-05T14:13:26.993Z,11.23
2022-11-05T14:16:04.919Z,10.13
2022-11-05T14:18:47.930Z,10.88
2022-11-05T14:21:49.365Z,11.35
2022-11-05T14:24:23.309Z,10.52
2022-11-05T14:27:03.208Z,11.77
2022-11-05T14:29:45.165Z,9.23
2022-11-05T14:32:19.801Z,11.48
2022-11-05T14:35:05.166Z,10.57
2022-11-05T14:38:00.397Z,10.93
2022-11-05T14:40:44.739Z,10.32
2022-11-05T14:43:15.731Z,12.55
2022-11-05T14:46:05.094Z,12.13
2022-11-05T14:48:44.324Z,11.88
2022-11-05T14:51:29.665Z,11.25
2022-11-05T14:54:09.618Z,11.27
2022-11-05T14:57:05.652Z,12.90
2022-11-05T14:59:53.845Z,11.32
2022-11-05T15:02:27.947Z,12.75
2022-11-05T15:05:34.332Z,10.50
2022-11-05T15:08:27.583Z,10.68
2022-11-05T15:11:03.391Z,13.23
2022-11-05T15:13:39.477Z,8.13
2022-11-05T15:16:08.573Z,10.93
2022-11-05T15:18:43.647Z,11.80
2022-11-05T15:21:16.227Z,11.65
2022-11-05T15:23:47.590Z,13.50
2022-11-05T15:26:29.745Z,12.45
2022-11-05T15:28:57.932Z,13.05
2022-11-05T15:31:37.305Z,11.45
2022-11-05T15:34:24.130Z,10.68
2022-11-05T15:37:01.205Z,12.80
2022-11-05T15:39:30.970Z,9.48
2022-11-05T15:42:02.717Z,10.93
2022-11-05T15:44:34.050Z,15.30
2022-11-05T15:47:20.149Z,13.45
2022-11-05T15:49:59.700Z,11.52
2022-11-05T15:52:37.762Z,12.00
2022-11-05T15:55:11.313Z,14.32
2022-11-05T15:57:40.612Z,17.02
2022-11-05T16:00:24.693Z,15.73
2022-11-05T16:03:09.520Z,15.98
2022-11-05T16:05:49.676Z,14.57
2022-11-05T16:08:27.726Z,13.85
2022-11-05T16:10:58.881Z,13.73
2022-11-05T16:13:32.278Z,16.92
2022-11-05T16:16:03.236Z,13.10
2022-11-05T16:18:41.183Z,14.00
2022-11-05T16:21:10.549Z,15.48
2022-11-05T16:23:44.946Z,16.58
2022-11-05T16:29:32.476Z,14.68
2022-11-05T16:32:02.407Z,14.18
2022-11-05T16:34:47.794Z,13.93
2022-11-05T16:37:19.991Z,17.30
2022-11-05T16:39:48.036Z,18.70
2022-11-05T16:42:24.747Z,16.00
2022-11-05T16:44:58.650Z,19.10
2022-11-05T16:47:27.480Z,25.40
2022-11-05T16:49:55.409Z,17.88
2022-11-05T16:52:23.456Z,18.23
2022-11-05T16:54:51.310Z,17.48
2022-11-05T16:57:27.824Z,18.45
2022-11-05T16:59:56.764Z,19.00
2022-11-05T17:02:24.852Z,20.80
2022-11-05T17:04:53.101Z,18.10
2022-11-05T17:07:20.965Z,22.20
2022-11-05T17:09:49.058Z,18.08
2022-11-05T17:12:17.697Z,20.75
2022-11-05T17:14:45.556Z,20.45
2022-11-05T17:17:13.413Z,21.27
2022-11-05T17:19:43.398Z,16.52
2022-11-05T17:22:11.300Z,18.85
2022-11-05T17:24:39.952Z,18.20
2022-11-05T17:27:07.888Z,17.77
2022-11-05T17:29:35.720Z,19.15
2022-11-05T17:32:03.617Z,22.23
2022-11-05T17:34:31.435Z,20.17
2022-11-05T17:36:59.380Z,19.58
2022-11-05T17:39:31.416Z,22.92
2022-11-05T17:41:59.801Z,19.83
2022-11-05T17:44:30.766Z,18.55
2022-11-05T17:46:58.641Z,21.27
2022-11-05T17:49:26.624Z,19.73
2022-11-05T17:51:54.546Z,16.33
2022-11-05T17:54:22.413Z,16.90
2022-11-05T17:56:50.353Z,19.55
2022-11-05T17:59:18.300Z,20.85
2022-11-05T18:01:47.115Z,20.40
2022-11-05T18:04:15.135Z,17.55
2022-11-05T18:06:43.479Z,19.85
2022-11-05T18:09:12.219Z,18.02
2022-11-05T18:11:41.084Z,21.08
2022-11-05T18:14:09.058Z,18.48
2022-11-05T18:16:37.532Z,17.35
2022-11-05T18:19:05.679Z,17.02
2022-11-05T18:21:33.577Z,19.23
2022-11-05T18:24:09.407Z,16.25
2022-11-05T18:26:37.445Z,17.90
2022-11-05T18:29:07.306Z,16.77
2022-11-05T18:31:35.172Z,18.05
2022-11-05T18:34:03.350Z,17.10
2022-11-05T18:36:33.204Z,16.13
2022-11-05T18:39:04.649Z,16.33
2022-11-05T18:41:33.396Z,13.75
2022-11-05T18:44:02.692Z,15.65
2022-11-05T18:47:00.143Z,19.27
2022-11-05T18:49:19.944Z,16.40
2022-11-05T18:51:47.856Z,15.80
2022-11-05T18:54:15.844Z,13.82
2022-11-05T18:56:46.521Z,17.20
2022-11-05T19:02:09.969Z,18.05
2022-11-05T19:04:50.522Z,15.50
2022-11-05T19:07:28.606Z,16.92
2022-11-05T19:09:56.568Z,15.70
2022-11-05T19:12:24.442Z,13.55
2022-11-05T19:14:52.333Z,13.80
2022-11-05T19:17:20.236Z,15.68
2022-11-05T19:19:48.133Z,13.68
2022-11-05T19:22:16.018Z,17.60
2022-11-05T19:24:43.897Z,17.23
2022-11-05T19:27:11.787Z,16.25
2022-11-05T19:29:39.635Z,14.45
2022-11-05T19:32:07.554Z,13.60
2022-11-05T19:34:35.628Z,18.73
2022-11-05T19:37:03.766Z,15.50
2022-11-05T19:39:31.636Z,14.43
2022-11-05T19:42:03.726Z,14.73
2022-11-05T19:44:32.157Z,13.88
2022-11-05T19:47:00.019Z,18.00
2022-11-05T19:49:30.404Z,15.23
2022-11-05T19:51:58.445Z,21.40
2022-11-05T19:54:26.274Z,17.05
2022-11-05T19:56:54.333Z,20.25
2022-11-05T19:59:22.298Z,19.17
2022-11-05T20:01:50.255Z,15.73
2022-11-05T20:04:18.369Z,23.00
2022-11-05T20:06:46.387Z,18.45
2022-11-05T20:09:21.763Z,18.33
2022-11-05T20:11:55.307Z,18.08
2022-11-05T20:14:28.862Z,18.25
2022-11-05T20:16:56.874Z,19.52
2022-11-05T20:19:25.083Z,19.90
2022-11-05T20:21:53.165Z,16.35
2022-11-05T20:24:25.160Z,16.85
2022-11-05T20:26:55.370Z,17.35
2022-11-05T20:29:24.124Z,15.25
2022-11-05T20:31:53.427Z,12.90
2022-11-05T20:34:21.305Z,16.98
2022-11-05T20:36:49.205Z,16.45
2022-11-05T20:39:17.954Z,16.40
2022-11-05T20:41:47.180Z,16.80
2022-11-05T20:44:15.249Z,17.58
2022-11-05T20:46:43.118Z,17.58
2022-11-05T20:49:11.418Z,19.77
2022-11-05T20:51:39.504Z,17.13
2022-11-05T20:54:07.424Z,18.30
2022-11-05T20:56:36.480Z,16.80
2022-11-05T20:59:04.688Z,15.85
2022-11-05T21:01:34.538Z,18.52
2022-11-05T21:04:04.036Z,17.90
2022-11-05T21:06:32.930Z,18.33
2022-11-05T21:09:00.845Z,22.73
2022-11-05T21:11:28.786Z,21.52
2022-11-05T21:13:56.730Z,16.48
2022-11-05T21:16:24.625Z,17.70
2022-11-05T21:18:52.515Z,14.68
2022-11-05T21:21:21.819Z,19.10
2022-11-05T21:23:49.981Z,19.02
2022-11-05T21:26:18.933Z,20.95
2022-11-05T21:28:47.006Z,14.52
2022-11-05T21:31:14.969Z,15.05
2022-11-05T21:33:42.905Z,17.30
2022-11-05T21:36:13.226Z,16.45
2022-11-05T21:38:42.133Z,19.05
2022-11-05T21:41:12.443Z,21.20
2022-11-05T21:43:42.758Z,16.75
2022-11-05T21:46:14.341Z,19.75
2022-11-05T21:48:46.088Z,19.95
2022-11-05T21:51:32.929Z,18.10
2022-11-05T21:54:19.407Z,19.85
2022-11-05T21:57:10.660Z,17.27
2022-11-05T21:59:52.761Z,24.05
2022-11-05T22:02:23.756Z,23.40
2022-11-05T22:04:54.200Z,24.02
2022-11-05T22:07:24.875Z,20.13
2022-11-05T22:09:53.507Z,22.30
2022-11-05T22:12:21.794Z,20.88
2022-11-05T22:14:49.702Z,17.90
2022-11-05T22:17:17.725Z,21.85
2022-11-05T22:19:45.980Z,18.73
2022-11-05T22:22:14.576Z,24.25
2022-11-05T22:24:43.348Z,26.83
2022-11-05T22:27:16.609Z,22.83
2022-11-05T22:29:44.629Z,27.88
2022-11-05T22:32:12.768Z,23.55
2022-11-05T22:34:40.843Z,21.58
2022-11-05T22:37:13.452Z,24.85
2022-11-05T22:39:44.207Z,19.88
2022-11-05T22:42:12.172Z,19.50
2022-11-05T22:44:40.254Z,22.50
2022-11-05T22:47:08.162Z,21.00
2022-11-05T22:49:36.098Z,21.83
2022-11-05T22:52:04.144Z,20.85
2022-11-05T22:54:37.911Z,18.88
2022-11-05T22:57:07.166Z,19.10
2022-11-05T22:59:35.187Z,21.25
2022-11-05T23:02:09.239Z,20.60
2022-11-05T23:04:39.752Z,19.90
2022-11-05T23:07:27.795Z,18.27
2022-11-05T23:10:14.888Z,22.00
2022-11-05T23:12:44.800Z,20.38
2022-11-05T23:15:32.952Z,19.17
2022-11-05T23:18:19.904Z,20.35
2022-11-05T23:21:06.161Z,17.60
2022-11-05T23:23:52.658Z,24.88
2022-11-05T23:26:39.056Z,19.40
2022-11-05T23:29:11.359Z,22.08
2022-11-05T23:31:58.062Z,24.35
2022-11-05T23:34:26.071Z,25.33
2022-11-05T23:37:12.442Z,21.88
2022-11-05T23:39:42.851Z,24.02
2022-11-05T23:42:30.282Z,22.03
2022-11-05T23:45:16.936Z,25.67
2022-11-05T23:48:03.300Z,22.30
2022-11-05T23:50:37.104Z,23.60
2022-11-05T23:53:06.735Z,24.80
2022-11-05T23:55:34.923Z,21.55
2022-11-05T23:58:02.966Z,22.63
